This is the latest recevied weather packets stored in our database for station/object EA2CW-13. If no packets are shown the sender has not sent any weather packets the latest 10 day(s).
| Time | Temp. | Humidity | Pressure | Rain* | Wind** | Luminosity | Snow |
|---|---|---|---|---|---|---|---|
| 1777911031 | 22.78° C | 43% | 1051.1 hPa | - | - | 78 W/m² | - |
| 1777910095 | 25° C | 39% | 1051 hPa | - | - | 87 W/m² | - |
| 1777909159 | 23.89° C | 40% | 1050.9 hPa | - | - | 82 W/m² | - |
| 1777908223 | 23.33° C | 43% | 1050.8 hPa | - | - | 77 W/m² | - |
| 1777907287 | 21.67° C | 45% | 1050.9 hPa | - | - | 65 W/m² | - |
| 1777906351 | 22.22° C | 44% | 1050.9 hPa | - | - | 93 W/m² | - |
| 1777905415 | 22.22° C | 44% | 1051.1 hPa | - | - | 80 W/m² | - |
| 1777904479 | 21.67° C | 46% | 1051.2 hPa | - | - | 73 W/m² | - |
| 1777903543 | 22.22° C | 50% | 1051.2 hPa | - | - | 92 W/m² | - |
| 1777902607 | 21.11° C | 54% | 1051.4 hPa | - | - | 79 W/m² | - |
| 1777901671 | 19.44° C | 55% | 1051.4 hPa | - | - | 74 W/m² | - |
| 1777900735 | 20.56° C | 54% | 1051.4 hPa | - | - | 50 W/m² | - |
| 1777899799 | 23.33° C | 52% | 1051.2 hPa | - | - | 109 W/m² | - |
| 1777898863 | 19.44° C | 60% | 1051.3 hPa | - | - | 74 W/m² | - |
| 1777897927 | 18.89° C | 62% | 1051.6 hPa | - | - | 49 W/m² | - |
| 1777896991 | 18.89° C | 62% | 1051.6 hPa | - | - | 44 W/m² | - |
| 1777896056 | 18.33° C | 61% | 1051.5 hPa | - | - | 45 W/m² | - |
| 1777895119 | 17.78° C | 61% | 1051.7 hPa | - | - | 38 W/m² | - |
| 1777894183 | 18.33° C | 59% | 1051.6 hPa | - | - | 55 W/m² | - |
| 1777893248 | 19.44° C | 56% | 1051.6 hPa | - | - | 56 W/m² | - |
| 1777892312 | 20° C | 55% | 1051.6 hPa | - | - | 76 W/m² | - |
| 1777891376 | 20.56° C | 56% | 1051.6 hPa | - | - | 86 W/m² | - |
| 1777890440 | 20° C | 60% | 1051.7 hPa | - | - | 96 W/m² | - |
| 1777889504 | 18.89° C | 68% | 1051.6 hPa | - | - | 69 W/m² | - |
| 1777888568 | 18.89° C | 86% | 1051.8 hPa | - | - | 87 W/m² | - |
* Rain since midnight (hover to see other rain measurements)
** Current wind speed in m/s (hover to see current wind gust speed)